Flight Track Log - Related Links

Times and Time Zones

All times are in EDT time to prevent confusion due to time zone crossing. See the EGF4152 flight status page for this flight to view local times or setup timezone preferences in your user account.


Time Position Orientation Groundspeed Altitude Reporting Facility
EDT Latitude Longitude Course Direction KTS MPH feet Rate Location/Type
Mon 06:22:07 AM 42.2664 -85.5486 294° West 177 204 2,500  Level Chicago Center
Mon 06:23:07 AM 42.3069 -85.5544 354° North 181 208 4,700 1,983 Climbing Chicago Center
Mon 06:24:00 AM 42.3343 -85.8018 304° West  Level FlightAware Approximate
Mon 06:24:08 AM 42.3289 -85.6289 292° West 209 241 6,500  Level Chicago Center
Mon 06:25:00 AM 42.3670 -85.8840 304° West  Level FlightAware Approximate
Mon 06:25:08 AM 42.3531 -85.7103 292° West 227 261 9,200  Level Chicago Center
Mon 06:26:00 AM 42.4032 -85.9663 298° West  Level FlightAware Approximate
Mon 06:26:09 AM 42.3858 -85.8214 292° West 259 298 10,000  Level Chicago Center
Mon 06:27:00 AM 42.4342 -86.0524 294° West  Level FlightAware Approximate
Mon 06:27:09 AM 42.4106 -85.9364 286° West 307 353 11,800  Level Chicago Center
Mon 06:28:10 AM 42.4131 -86.0536 272° West 311 358 14,200 1,686 Climbing Chicago Center
Mon 06:29:10 AM 42.4192 -86.1714 274° West 312 359 15,200 793 Climbing Chicago Center
Mon 06:30:11 AM 42.4181 -86.2989 269° West 333 383 15,800 393 Climbing Chicago Center
Mon 06:31:12 AM 42.4167 -86.4358 269° West 359 413 16,000 -347 Climbing Chicago Center
Mon 06:32:12 AM 42.4133 -86.5708 268° West 361 415 15,100 -992 Descending Chicago Center
Mon 06:33:13 AM 42.4125 -86.7025 270° West 353 406 14,000 -1,091 Descending Chicago Center
Mon 06:34:13 AM 42.4089 -86.8308 268° West 343 395 12,900 -1,140 Descending Chicago Center
Mon 06:35:14 AM 42.4064 -86.9581 269° West 339 390 11,700 -1,140 Descending Chicago Center
Mon 06:36:14 AM 42.4042 -87.0817 269° West 330 380 10,600 -843 Descending Chicago Center
Mon 06:37:15 AM 42.3997 -87.2056 267° West 330 380 10,000 -295 Descending Chicago Center
Mon 06:38:16 AM 42.3739 -87.3250 254° West 345 397 10,000  Level Chicago Center
Mon 06:39:16 AM 42.3472 -87.4469 254° West 331 381 10,000  Level Chicago Center
Mon 06:40:17 AM 42.3356 -87.5694 263° West 332 382 10,000  Level Chicago Center
Mon 06:41:17 AM 42.3228 -87.6900 262° West 329 379 10,000 -198 Level Chicago Center
Mon 06:42:18 AM 42.3111 -87.7944 261° West 287 330 9,600 -787 Descending Chicago Center
Mon 06:43:19 AM 42.3006 -87.8878 261° West 257 296 8,400 -1,190 Descending Chicago Center
Mon 06:44:19 AM 42.2917 -87.9853 263° West 261 300 7,200 -744 Descending Chicago Center
Mon 06:45:20 AM 42.2667 -88.0717 249° West 265 305 6,900 -545 Descending Chicago Center
Mon 06:46:20 AM 42.2131 -88.1328 220° Southwest 258 297 6,100 -800 Descending Chicago Center

Login

Don't have an account? Register now (free) for customized features, flight alerts, and more!